createdAt,value
2017-07-12T00:00:01.457Z,18.67
2017-07-12T00:02:31.106Z,18.67
2017-07-12T00:05:00.807Z,18.61
2017-07-12T00:07:31.358Z,18.69
2017-07-12T00:10:01.959Z,18.52
2017-07-12T00:12:31.601Z,18.37
2017-07-12T00:15:01.245Z,18.41
2017-07-12T00:17:30.911Z,18.45
2017-07-12T00:20:00.557Z,18.35
2017-07-12T00:22:30.244Z,18.20
2017-07-12T00:24:59.897Z,18.37
2017-07-12T00:27:29.541Z,18.21
2017-07-12T00:29:59.202Z,18.13
2017-07-12T00:32:29.721Z,18.20
2017-07-12T00:34:59.414Z,18.08
2017-07-12T00:37:29.065Z,18.07
2017-07-12T00:39:58.730Z,18.11
2017-07-12T00:42:28.411Z,18.08
2017-07-12T00:44:58.058Z,18.19
2017-07-12T00:47:27.730Z,18.06
2017-07-12T00:49:57.684Z,17.84
2017-07-12T00:52:27.323Z,17.93
2017-07-12T00:54:56.989Z,17.94
2017-07-12T00:57:26.626Z,17.89
2017-07-12T00:59:58.532Z,17.85
2017-07-12T01:02:29.226Z,17.92
2017-07-12T01:04:58.915Z,17.92
2017-07-12T01:07:28.585Z,17.90
2017-07-12T01:09:58.234Z,17.84
2017-07-12T01:12:27.897Z,17.82
2017-07-12T01:14:57.162Z,17.82
2017-07-12T01:17:26.861Z,17.66
2017-07-12T01:19:56.506Z,17.51
2017-07-12T01:22:26.142Z,17.57
2017-07-12T01:24:55.814Z,17.47
2017-07-12T01:27:25.450Z,17.56
2017-07-12T01:29:55.131Z,17.48
2017-07-12T01:32:24.776Z,17.54
2017-07-12T01:34:54.413Z,17.52
2017-07-12T01:37:24.074Z,17.40
2017-07-12T01:39:53.761Z,17.40
2017-07-12T01:42:23.433Z,17.43
2017-07-12T01:44:53.095Z,17.35
2017-07-12T01:47:22.744Z,17.56
2017-07-12T01:49:52.631Z,17.45
2017-07-12T01:52:22.282Z,17.37
2017-07-12T01:54:51.967Z,17.48
2017-07-12T01:57:21.606Z,17.57
2017-07-12T01:59:51.265Z,17.55
2017-07-12T02:02:20.939Z,17.58
2017-07-12T02:04:50.609Z,17.61
2017-07-12T02:07:20.294Z,17.51
2017-07-12T02:09:49.966Z,17.27
2017-07-12T02:12:19.633Z,17.31
2017-07-12T02:14:49.321Z,17.28
2017-07-12T02:17:18.985Z,17.36
2017-07-12T02:19:48.698Z,17.38
2017-07-12T02:22:18.336Z,17.33
2017-07-12T02:24:47.977Z,17.41
2017-07-12T02:27:17.691Z,17.63
2017-07-12T02:29:47.333Z,17.64
2017-07-12T02:32:17.034Z,17.70
2017-07-12T02:34:46.694Z,17.69
2017-07-12T02:37:16.341Z,17.69
2017-07-12T02:39:46.023Z,17.83
2017-07-12T02:42:15.706Z,17.81
2017-07-12T02:44:45.405Z,17.77
2017-07-12T02:47:15.065Z,17.79
2017-07-12T02:49:44.709Z,17.82
2017-07-12T02:52:14.386Z,17.85
2017-07-12T02:54:44.034Z,17.79
2017-07-12T02:57:13.723Z,17.74
2017-07-12T02:59:43.378Z,17.74
2017-07-12T03:02:13.102Z,17.72
2017-07-12T03:04:42.858Z,17.79
2017-07-12T03:07:12.805Z,17.70
2017-07-12T03:09:42.483Z,17.74
2017-07-12T03:12:12.209Z,17.61
2017-07-12T03:14:42.533Z,17.67
2017-07-12T03:17:12.299Z,17.63
2017-07-12T03:19:41.953Z,17.70
2017-07-12T03:22:11.677Z,17.53
2017-07-12T03:24:41.313Z,17.42
2017-07-12T03:27:10.957Z,17.59
2017-07-12T03:29:40.635Z,17.58
2017-07-12T03:32:10.306Z,17.55
2017-07-12T03:34:39.997Z,17.67
2017-07-12T03:37:09.670Z,17.52
2017-07-12T03:39:55.965Z,17.44
2017-07-12T03:42:37.534Z,17.43
2017-07-12T03:45:08.269Z,17.41
2017-07-12T03:47:41.759Z,17.33
2017-07-12T03:50:13.555Z,17.38
2017-07-12T03:52:43.226Z,17.37
2017-07-12T03:55:13.570Z,17.35
2017-07-12T03:57:43.281Z,17.28
2017-07-12T04:00:13.048Z,17.39
2017-07-12T04:02:42.715Z,17.47
2017-07-12T04:05:12.481Z,17.52
2017-07-12T04:07:42.261Z,17.59
2017-07-12T04:10:12.039Z,17.69
2017-07-12T04:12:41.732Z,17.69
2017-07-12T04:15:11.319Z,17.77
2017-07-12T04:17:41.118Z,17.97
2017-07-12T04:20:10.904Z,18.16
2017-07-12T04:22:42.194Z,18.31
2017-07-12T04:25:12.090Z,18.32
2017-07-12T04:27:41.789Z,18.38
2017-07-12T04:30:11.483Z,18.58
2017-07-12T04:32:41.801Z,18.68
2017-07-12T04:35:11.698Z,18.75
2017-07-12T04:37:41.478Z,18.77
2017-07-12T04:40:11.166Z,18.90
2017-07-12T04:42:40.862Z,18.65
2017-07-12T04:45:11.196Z,18.72
2017-07-12T04:47:41.503Z,18.67
2017-07-12T04:50:11.849Z,18.73
2017-07-12T04:52:41.529Z,18.62
2017-07-12T04:55:11.191Z,18.45
2017-07-12T04:57:40.911Z,18.52
2017-07-12T05:00:10.632Z,18.55
2017-07-12T05:02:40.362Z,18.63
2017-07-12T05:05:10.715Z,18.56
2017-07-12T05:07:40.418Z,18.70
2017-07-12T05:10:10.099Z,18.80
2017-07-12T05:12:39.780Z,18.81
2017-07-12T05:15:09.532Z,18.83
2017-07-12T05:17:39.335Z,18.82
2017-07-12T05:20:09.393Z,18.89
2017-07-12T05:22:39.158Z,18.88
2017-07-12T05:25:08.883Z,18.95
2017-07-12T05:27:38.632Z,19.01
2017-07-12T05:30:08.314Z,19.08
2017-07-12T05:32:42.850Z,19.05
2017-07-12T05:35:12.620Z,19.12
2017-07-12T05:37:43.287Z,19.30
2017-07-12T05:40:13.043Z,19.33
2017-07-12T05:42:42.735Z,19.50
2017-07-12T05:45:12.551Z,19.58
2017-07-12T05:47:42.239Z,19.75
2017-07-12T05:50:12.644Z,19.66
2017-07-12T05:52:42.311Z,19.69
2017-07-12T05:55:12.152Z,19.77
2017-07-12T05:57:41.912Z,19.79
2017-07-12T06:00:11.563Z,19.82
2017-07-12T06:02:41.915Z,19.81
2017-07-12T06:05:11.564Z,19.50
2017-07-12T06:07:41.234Z,19.70
2017-07-12T06:10:10.921Z,19.76
2017-07-12T06:12:40.567Z,19.81
2017-07-12T06:15:11.038Z,19.83
2017-07-12T06:17:40.694Z,19.96
2017-07-12T06:20:10.460Z,19.92
2017-07-12T06:22:40.129Z,19.95
2017-07-12T06:25:10.604Z,20.06
2017-07-12T06:27:40.167Z,19.94
2017-07-12T06:30:10.634Z,20.01
2017-07-12T06:32:40.296Z,20.15
2017-07-12T06:35:10.075Z,20.21
2017-07-12T06:37:40.547Z,20.35
2017-07-12T06:40:10.302Z,20.39
2017-07-12T06:42:40.032Z,20.50
2017-07-12T06:45:09.847Z,20.47
2017-07-12T06:47:39.508Z,20.57
2017-07-12T06:50:10.092Z,20.59
2017-07-12T06:52:39.928Z,20.57
2017-07-12T06:55:09.583Z,20.65
2017-07-12T06:57:39.351Z,20.78
2017-07-12T07:00:09.039Z,20.79
2017-07-12T07:02:38.762Z,20.81
2017-07-12T07:05:08.582Z,20.80
2017-07-12T07:07:38.254Z,20.96
2017-07-12T07:10:07.983Z,20.94
2017-07-12T07:12:39.309Z,21.07
2017-07-12T07:15:09.043Z,21.17
2017-07-12T07:17:39.932Z,21.10
2017-07-12T07:20:09.570Z,21.11
2017-07-12T07:22:39.345Z,21.13
2017-07-12T07:25:09.082Z,21.23
2017-07-12T07:27:38.762Z,21.23
2017-07-12T07:30:08.491Z,21.37
2017-07-12T07:32:38.227Z,21.20
2017-07-12T07:35:07.994Z,21.39
2017-07-12T07:37:37.757Z,21.43
2017-07-12T07:40:08.028Z,21.42
2017-07-12T07:42:37.805Z,21.42
2017-07-12T07:45:07.504Z,21.39
2017-07-12T07:47:37.265Z,21.43
2017-07-12T07:50:06.942Z,21.43
2017-07-12T07:52:36.690Z,21.26
2017-07-12T07:55:06.615Z,21.34
2017-07-12T07:57:36.312Z,21.23
2017-07-12T08:00:06.039Z,21.40
2017-07-12T08:02:35.793Z,21.48
2017-07-12T08:05:05.567Z,21.56
2017-07-12T08:07:35.836Z,21.69
2017-07-12T08:10:05.530Z,21.61
2017-07-12T08:12:35.248Z,21.70
2017-07-12T08:15:05.646Z,21.60
2017-07-12T08:17:36.130Z,21.60
2017-07-12T08:20:05.971Z,21.54
2017-07-12T08:22:35.750Z,21.48
2017-07-12T08:25:05.493Z,21.48
2017-07-12T08:27:35.190Z,21.49
2017-07-12T08:30:04.849Z,21.56
2017-07-12T08:32:35.495Z,21.48
2017-07-12T08:35:05.150Z,21.55
2017-07-12T08:37:34.839Z,21.46
2017-07-12T08:40:04.845Z,21.42
2017-07-12T08:42:34.495Z,21.52
2017-07-12T08:45:04.286Z,21.38
2017-07-12T08:47:33.987Z,21.48
2017-07-12T08:50:03.686Z,21.59
2017-07-12T08:52:33.427Z,21.57
2017-07-12T08:55:03.138Z,21.60
2017-07-12T08:57:32.968Z,21.70
2017-07-12T09:00:02.763Z,21.74
2017-07-12T09:02:32.643Z,21.74
2017-07-12T09:05:02.858Z,21.71
2017-07-12T09:07:33.277Z,21.76
2017-07-12T09:10:02.994Z,21.75
2017-07-12T09:12:32.731Z,21.67
2017-07-12T09:15:02.405Z,21.68
2017-07-12T09:17:32.095Z,21.56
2017-07-12T09:20:02.127Z,21.63
2017-07-12T09:22:31.827Z,21.58
2017-07-12T09:35:00.386Z,21.55
2017-07-12T09:37:30.113Z,21.58
2017-07-12T09:39:59.786Z,21.65
2017-07-12T09:42:30.136Z,21.58
2017-07-12T09:44:59.874Z,21.42
2017-07-12T09:47:29.543Z,21.49
2017-07-12T09:49:59.291Z,21.62
2017-07-12T09:52:28.969Z,21.70
2017-07-12T09:54:58.707Z,21.74
2017-07-12T09:57:28.406Z,21.87
2017-07-12T09:59:58.183Z,21.78
2017-07-12T10:02:27.841Z,21.54
2017-07-12T10:04:57.852Z,21.57
2017-07-12T10:07:27.555Z,21.68
2017-07-12T10:09:57.323Z,21.75
2017-07-12T10:12:26.982Z,21.58
2017-07-12T10:14:56.635Z,21.37
2017-07-12T10:17:26.494Z,21.34
2017-07-12T10:19:56.254Z,21.18
2017-07-12T10:22:25.990Z,21.23
2017-07-12T10:24:55.631Z,21.15
2017-07-12T10:27:25.869Z,21.14
2017-07-12T10:29:55.628Z,21.21
2017-07-12T10:32:26.008Z,21.08
2017-07-12T10:34:56.342Z,21.01
2017-07-12T10:37:25.987Z,21.00
2017-07-12T10:39:55.673Z,20.96
2017-07-12T10:42:25.359Z,21.02
2017-07-12T10:44:55.016Z,20.76
2017-07-12T10:47:25.467Z,20.83
2017-07-12T10:49:55.154Z,20.71
2017-07-12T10:52:24.883Z,20.65
2017-07-12T10:54:54.622Z,20.72
2017-07-12T10:57:24.382Z,20.63
2017-07-12T10:59:54.079Z,20.57
2017-07-12T11:02:23.815Z,20.41
2017-07-12T11:04:53.564Z,20.34
2017-07-12T11:07:29.688Z,20.50
2017-07-12T11:09:59.372Z,20.50
2017-07-12T11:12:29.090Z,20.50
2017-07-12T11:14:58.834Z,20.57
2017-07-12T11:17:28.552Z,20.55
2017-07-12T11:19:58.240Z,20.40
2017-07-12T11:22:28.910Z,20.16
2017-07-12T11:24:58.851Z,20.19
2017-07-12T11:27:28.569Z,20.32
2017-07-12T11:29:58.234Z,20.00
2017-07-12T11:32:27.990Z,19.82
2017-07-12T11:34:57.701Z,19.51
2017-07-12T11:37:27.451Z,19.63
2017-07-12T11:39:57.118Z,19.64
2017-07-12T11:42:26.815Z,19.62
2017-07-12T11:44:56.487Z,19.58
2017-07-12T11:47:26.139Z,19.52
2017-07-12T11:49:55.919Z,19.53
2017-07-12T11:52:25.574Z,19.42
2017-07-12T11:54:55.305Z,19.17
2017-07-12T11:57:25.012Z,19.31
2017-07-12T11:59:54.714Z,18.97
2017-07-12T12:02:24.414Z,19.23
2017-07-12T12:04:54.157Z,18.70
2017-07-12T12:07:24.042Z,18.98
2017-07-12T12:10:00.455Z,18.92
2017-07-12T12:12:31.458Z,18.91
2017-07-12T12:15:01.204Z,18.88
2017-07-12T12:17:30.901Z,18.89
2017-07-12T12:20:00.600Z,19.03
2017-07-12T12:22:31.102Z,19.02
2017-07-12T12:25:00.891Z,18.95
2017-07-12T12:27:30.755Z,18.98
2017-07-12T12:30:00.418Z,19.11
2017-07-12T12:32:30.235Z,19.11
2017-07-12T12:35:00.041Z,18.76
2017-07-12T12:37:29.762Z,18.64
2017-07-12T12:39:59.437Z,18.86
2017-07-12T12:42:30.011Z,18.84
2017-07-12T12:44:59.711Z,18.93
2017-07-12T12:47:29.435Z,18.73
2017-07-12T12:49:59.241Z,18.87
2017-07-12T12:52:28.931Z,18.99
2017-07-12T12:54:58.697Z,18.77
2017-07-12T12:57:28.493Z,18.81
2017-07-12T12:59:57.964Z,18.75
2017-07-12T13:02:27.650Z,18.72
2017-07-12T13:05:02.953Z,18.81
2017-07-12T13:07:32.708Z,18.90
2017-07-12T13:10:02.463Z,19.00
2017-07-12T13:12:33.515Z,18.92
2017-07-12T13:15:03.437Z,18.97
2017-07-12T13:17:33.106Z,19.04
2017-07-12T13:20:03.385Z,19.11
2017-07-12T13:22:33.170Z,19.07
2017-07-12T13:25:02.889Z,19.25
2017-07-12T13:27:32.587Z,19.28
2017-07-12T13:30:02.389Z,19.52
2017-07-12T13:32:33.085Z,19.48
2017-07-12T13:35:02.850Z,19.28
2017-07-12T13:37:32.522Z,19.47
2017-07-12T13:40:02.189Z,19.54
2017-07-12T13:42:31.934Z,19.67
2017-07-12T13:45:01.702Z,19.78
2017-07-12T13:47:31.606Z,19.80
2017-07-12T13:50:01.402Z,19.92
2017-07-12T13:52:31.194Z,20.00
2017-07-12T13:55:00.863Z,20.06
2017-07-12T13:57:30.667Z,20.25
2017-07-12T14:00:00.967Z,20.36
2017-07-12T14:02:31.122Z,20.47
2017-07-12T14:05:00.776Z,20.33
2017-07-12T14:07:30.491Z,20.20
2017-07-12T14:10:00.342Z,20.24
2017-07-12T14:12:30.087Z,20.09
2017-07-12T14:14:59.859Z,20.20
2017-07-12T14:17:29.639Z,20.30
2017-07-12T14:19:59.414Z,20.19
2017-07-12T14:22:29.830Z,20.31
2017-07-12T14:25:00.190Z,20.22
2017-07-12T14:27:29.942Z,20.27
2017-07-12T14:29:59.625Z,20.11
2017-07-12T14:32:29.949Z,20.23
2017-07-12T14:34:59.637Z,20.30
2017-07-12T14:37:29.443Z,20.36
2017-07-12T14:39:59.125Z,20.36
2017-07-12T14:42:28.838Z,20.36
2017-07-12T14:44:58.550Z,20.42
2017-07-12T14:47:28.267Z,20.49
2017-07-12T14:49:57.987Z,20.47
2017-07-12T14:52:27.687Z,20.46
2017-07-12T14:54:57.432Z,20.41
2017-07-12T14:57:30.012Z,20.41
2017-07-12T15:00:01.634Z,20.27
2017-07-12T15:02:31.444Z,20.25
2017-07-12T15:05:01.895Z,20.31
2017-07-12T15:07:31.557Z,20.33
2017-07-12T15:10:01.316Z,20.34
2017-07-12T15:12:31.058Z,20.35
2017-07-12T15:15:00.736Z,20.35
2017-07-12T15:17:30.531Z,20.60
2017-07-12T15:20:00.253Z,20.74
2017-07-12T15:22:30.012Z,20.86
2017-07-12T15:24:59.699Z,20.96
2017-07-12T15:27:29.390Z,21.00
2017-07-12T15:30:00.411Z,20.97
2017-07-12T15:32:30.092Z,20.81
2017-07-12T15:35:00.211Z,20.76
2017-07-12T15:37:29.998Z,20.64
2017-07-12T15:40:07.094Z,20.44
2017-07-12T15:42:36.843Z,20.45
2017-07-12T15:45:06.583Z,20.47
2017-07-12T15:47:36.894Z,20.47
2017-07-12T15:50:06.549Z,20.38
2017-07-12T15:52:37.241Z,20.40
2017-07-12T15:55:06.896Z,20.41
2017-07-12T15:57:36.660Z,20.32
2017-07-12T16:00:06.421Z,20.38
2017-07-12T16:02:36.214Z,20.41
2017-07-12T16:05:05.863Z,20.43
2017-07-12T16:07:35.523Z,20.42
2017-07-12T16:10:05.306Z,20.47
2017-07-12T16:12:34.969Z,20.56
2017-07-12T16:15:04.672Z,20.49
2017-07-12T16:17:34.402Z,20.59
2017-07-12T16:20:04.259Z,20.54
2017-07-12T16:22:33.948Z,20.55
2017-07-12T16:25:03.648Z,20.56
2017-07-12T16:27:34.121Z,20.54
2017-07-12T16:30:03.773Z,20.49
2017-07-12T16:32:33.303Z,20.36
2017-07-12T16:35:03.135Z,20.31
2017-07-12T16:37:32.793Z,20.33
2017-07-12T16:40:02.606Z,20.39
2017-07-12T16:42:33.485Z,20.43
2017-07-12T16:45:03.906Z,20.60
2017-07-12T16:47:33.631Z,20.56
2017-07-12T16:50:03.917Z,20.52
2017-07-12T16:52:34.430Z,20.42
2017-07-12T16:55:04.835Z,20.52
2017-07-12T16:57:34.595Z,20.53
2017-07-12T17:00:03.987Z,20.54
2017-07-12T17:02:33.662Z,20.60
2017-07-12T17:05:05.100Z,20.63
2017-07-12T17:07:35.726Z,20.61
2017-07-12T17:10:05.542Z,20.56
2017-07-12T17:12:35.254Z,20.53
2017-07-12T17:15:04.975Z,20.49
2017-07-12T17:17:34.666Z,20.48
2017-07-12T17:20:04.476Z,20.40
2017-07-12T17:22:34.951Z,20.25
2017-07-12T17:25:04.652Z,20.41
2017-07-12T17:27:35.100Z,20.34
2017-07-12T17:30:05.275Z,20.41
2017-07-12T17:32:35.675Z,20.33
2017-07-12T17:35:05.366Z,20.28
2017-07-12T17:37:35.047Z,20.30
2017-07-12T17:40:04.747Z,20.22
2017-07-12T17:42:35.429Z,20.11
2017-07-12T17:45:09.132Z,20.12
2017-07-12T17:47:43.122Z,19.72
2017-07-12T17:50:15.897Z,19.17
2017-07-12T17:52:46.989Z,18.55
2017-07-12T17:55:19.977Z,18.24
2017-07-12T17:57:50.456Z,18.00
2017-07-12T18:00:22.019Z,17.88
2017-07-12T18:02:51.975Z,17.94
2017-07-12T18:05:22.184Z,17.92
2017-07-12T18:07:52.265Z,17.90
2017-07-12T18:10:23.866Z,17.91
2017-07-12T18:12:54.808Z,17.93
2017-07-12T18:15:24.671Z,17.95
2017-07-12T18:17:54.414Z,17.96
2017-07-12T18:20:25.277Z,17.81
2017-07-12T18:22:57.703Z,17.77
2017-07-12T18:25:29.703Z,17.71
2017-07-12T18:28:07.563Z,17.51
2017-07-12T18:30:39.806Z,17.58
2017-07-12T18:33:12.636Z,17.61
2017-07-12T18:35:45.807Z,17.50
2017-07-12T18:38:18.399Z,17.59
2017-07-12T18:40:51.075Z,17.51
2017-07-12T18:43:22.610Z,17.47
2017-07-12T18:45:55.146Z,17.52
2017-07-12T18:48:25.551Z,17.51
2017-07-12T18:50:55.952Z,17.47
2017-07-12T18:53:26.954Z,17.44
2017-07-12T18:55:57.135Z,17.51
2017-07-12T18:58:27.407Z,17.40
2017-07-12T19:00:57.557Z,17.37
2017-07-12T19:03:27.762Z,17.38
2017-07-12T19:05:57.586Z,17.56
2017-07-12T19:08:28.336Z,17.50
2017-07-12T19:10:58.321Z,17.56
2017-07-12T19:13:28.554Z,17.48
2017-07-12T19:15:58.783Z,17.43
2017-07-12T19:18:28.897Z,17.49
2017-07-12T19:20:59.243Z,17.38
2017-07-12T19:23:29.549Z,17.49
2017-07-12T19:25:59.885Z,17.36
2017-07-12T19:28:30.213Z,17.44
2017-07-12T19:31:00.384Z,17.42
2017-07-12T19:33:31.172Z,17.44
2017-07-12T19:36:01.440Z,17.44
2017-07-12T19:38:32.086Z,17.35
2017-07-12T19:41:02.137Z,17.41
2017-07-12T19:43:33.081Z,17.57
2017-07-12T19:46:03.219Z,17.52
2017-07-12T19:48:33.566Z,17.35
2017-07-12T19:51:03.965Z,17.39
2017-07-12T19:53:34.102Z,17.36
2017-07-12T19:56:04.836Z,17.29
2017-07-12T19:58:35.258Z,17.39
2017-07-12T20:01:05.900Z,17.42
2017-07-12T20:03:36.276Z,17.43
2017-07-12T20:06:07.479Z,17.44
2017-07-12T20:08:37.700Z,17.49
2017-07-12T20:11:08.335Z,17.38
2017-07-12T20:13:39.992Z,17.33
2017-07-12T20:16:11.115Z,17.38
2017-07-12T20:18:42.220Z,17.29
2017-07-12T20:21:11.983Z,17.17
2017-07-12T20:23:41.783Z,17.07
2017-07-12T20:26:12.498Z,17.20
2017-07-12T20:28:43.285Z,17.26
2017-07-12T20:31:13.127Z,17.22
2017-07-12T20:33:44.242Z,17.15
2017-07-12T20:36:14.229Z,17.11
2017-07-12T20:38:45.163Z,16.97
2017-07-12T20:41:16.759Z,17.00
2017-07-12T20:43:47.717Z,17.08
2017-07-12T20:46:18.873Z,17.07
2017-07-12T20:48:50.232Z,16.88
2017-07-12T20:51:21.831Z,16.70
2017-07-12T20:53:52.772Z,16.88
2017-07-12T20:56:23.389Z,16.55
2017-07-12T20:58:53.124Z,16.43
2017-07-12T21:01:22.839Z,16.31
2017-07-12T21:03:52.601Z,16.29
2017-07-12T21:06:24.551Z,16.21
2017-07-12T21:08:54.254Z,16.19
2017-07-12T21:11:23.975Z,16.14
2017-07-12T21:13:54.447Z,16.19
2017-07-12T21:16:25.492Z,16.29
2017-07-12T21:18:55.257Z,16.20
2017-07-12T21:21:24.971Z,16.32
2017-07-12T21:23:54.946Z,16.24
2017-07-12T21:26:24.639Z,16.27
2017-07-12T21:28:55.204Z,16.37
2017-07-12T21:31:25.544Z,16.36
2017-07-12T21:33:55.318Z,16.31
2017-07-12T21:36:25.694Z,16.25
2017-07-12T21:38:55.394Z,16.23
2017-07-12T21:41:25.613Z,16.23
2017-07-12T21:43:55.368Z,16.07
2017-07-12T21:46:25.055Z,15.99
2017-07-12T21:48:55.447Z,16.07
2017-07-12T21:51:25.456Z,16.01
2017-07-12T21:54:11.902Z,15.82
2017-07-12T21:57:00.269Z,15.76
2017-07-12T21:59:51.434Z,15.71
2017-07-12T22:02:37.787Z,15.65
2017-07-12T22:05:24.137Z,15.55
2017-07-12T22:08:10.571Z,15.78
2017-07-12T22:10:56.931Z,15.66
2017-07-12T22:13:43.384Z,15.73
2017-07-12T22:16:29.734Z,15.62
2017-07-12T22:19:16.443Z,15.57
2017-07-12T22:22:02.786Z,15.52
2017-07-12T22:24:49.990Z,15.61
2017-07-12T22:27:36.489Z,15.63
2017-07-12T22:30:22.776Z,15.62
2017-07-12T22:33:09.206Z,15.64
2017-07-12T22:35:55.619Z,15.48
2017-07-12T22:38:30.845Z,15.56
2017-07-12T22:41:05.946Z,15.64
2017-07-12T22:43:34.916Z,15.57
2017-07-12T22:46:04.665Z,15.59
2017-07-12T22:48:34.422Z,15.57
2017-07-12T22:51:04.076Z,15.43
2017-07-12T22:53:33.882Z,15.45
2017-07-12T22:56:03.677Z,15.47
2017-07-12T22:58:33.346Z,15.42
2017-07-12T23:01:05.360Z,15.43
2017-07-12T23:03:37.382Z,15.26
2017-07-12T23:06:07.845Z,15.23
2017-07-12T23:08:37.514Z,15.14
2017-07-12T23:11:07.745Z,15.12
2017-07-12T23:13:37.431Z,15.07
2017-07-12T23:16:07.098Z,15.11
2017-07-12T23:18:36.933Z,15.12
2017-07-12T23:21:06.706Z,15.04
2017-07-12T23:23:36.411Z,14.98
2017-07-12T23:26:05.763Z,14.95
2017-07-12T23:28:35.545Z,14.89
2017-07-12T23:31:05.316Z,14.76
2017-07-12T23:33:35.041Z,14.84
2017-07-12T23:36:05.515Z,14.84
2017-07-12T23:38:35.350Z,14.70
2017-07-12T23:41:05.101Z,14.62
2017-07-12T23:43:34.818Z,14.48
2017-07-12T23:46:05.572Z,14.71
2017-07-12T23:48:35.302Z,14.63
2017-07-12T23:51:04.635Z,14.61
2017-07-12T23:53:34.410Z,14.53
2017-07-12T23:56:04.230Z,14.56
2017-07-12T23:58:34.455Z,14.61
